createdAt,value
2023-01-07T00:01:29.645Z,10.43
2023-01-07T00:03:57.433Z,9.03
2023-01-07T00:06:25.129Z,14.83
2023-01-07T00:08:53.963Z,11.97
2023-01-07T00:11:26.404Z,9.20
2023-01-07T00:13:54.894Z,13.77
2023-01-07T00:16:24.389Z,13.70
2023-01-07T00:18:53.486Z,12.93
2023-01-07T00:21:22.209Z,8.40
2023-01-07T00:23:49.690Z,14.77
2023-01-07T00:26:18.873Z,12.63
2023-01-07T00:28:47.922Z,12.57
2023-01-07T00:31:23.781Z,17.73
2023-01-07T00:33:54.339Z,16.97
2023-01-07T00:36:23.837Z,18.17
2023-01-07T00:39:03.057Z,13.93
2023-01-07T00:41:30.001Z,15.70
2023-01-07T00:43:57.099Z,14.57
2023-01-07T00:46:24.317Z,12.03
2023-01-07T00:48:51.443Z,13.03
2023-01-07T00:51:19.877Z,14.90
2023-01-07T00:53:47.319Z,12.53
2023-01-07T00:56:15.529Z,14.07
2023-01-07T00:58:42.282Z,14.47
2023-01-07T01:01:13.233Z,11.30
2023-01-07T01:03:40.938Z,10.13
2023-01-07T01:06:15.775Z,13.10
2023-01-07T01:08:46.891Z,12.03
2023-01-07T01:11:16.074Z,15.47
2023-01-07T01:13:44.762Z,8.97
2023-01-07T01:16:17.281Z,11.17
2023-01-07T01:18:45.338Z,15.07
2023-01-07T01:21:13.766Z,11.30
2023-01-07T01:23:40.888Z,14.03
2023-01-07T01:26:10.723Z,14.07
2023-01-07T01:28:38.097Z,12.43
2023-01-07T01:31:05.536Z,12.60
2023-01-07T01:33:32.427Z,10.37
2023-01-07T01:36:04.274Z,12.77
2023-01-07T01:38:31.299Z,16.00
2023-01-07T01:40:58.175Z,15.77
2023-01-07T01:43:36.811Z,22.33
2023-01-07T01:46:10.611Z,21.90
2023-01-07T01:48:40.102Z,24.10
2023-01-07T01:51:09.642Z,19.23
2023-01-07T01:53:36.740Z,16.87
2023-01-07T01:56:10.901Z,19.37
2023-01-07T01:58:43.497Z,21.20
2023-01-07T02:01:10.244Z,24.87
2023-01-07T02:03:38.055Z,22.77
2023-01-07T02:06:06.222Z,21.53
2023-01-07T02:08:32.963Z,23.07
2023-01-07T02:11:21.546Z,26.67
2023-01-07T02:13:54.457Z,18.30
2023-01-07T02:16:40.586Z,23.80
2023-01-07T02:19:27.304Z,22.40
2023-01-07T02:22:17.230Z,26.03
2023-01-07T02:24:46.799Z,18.83
2023-01-07T02:27:27.458Z,18.13
2023-01-07T02:29:54.532Z,23.43
2023-01-07T02:32:28.738Z,18.63
2023-01-07T02:35:12.463Z,23.13
2023-01-07T02:37:39.067Z,23.50
2023-01-07T02:40:24.268Z,25.40
2023-01-07T02:43:17.174Z,23.77
2023-01-07T02:46:12.807Z,21.90
2023-01-07T02:48:39.844Z,23.23
2023-01-07T02:51:06.502Z,25.00
2023-01-07T02:53:33.959Z,27.00
2023-01-07T02:56:11.385Z,31.67
2023-01-07T02:58:56.854Z,25.93
2023-01-07T03:01:38.181Z,27.83
2023-01-07T03:04:32.744Z,29.03
2023-01-07T03:07:29.783Z,25.50
2023-01-07T03:10:05.872Z,25.90
2023-01-07T03:12:42.990Z,33.40
2023-01-07T03:15:18.149Z,26.03
2023-01-07T03:17:52.192Z,28.20
2023-01-07T03:20:22.637Z,34.70
2023-01-07T03:22:51.114Z,27.80
2023-01-07T03:25:21.509Z,29.80
2023-01-07T03:27:50.976Z,32.10
2023-01-07T03:30:19.938Z,32.77
2023-01-07T03:32:57.866Z,29.37
2023-01-07T03:35:25.434Z,32.47
2023-01-07T03:37:53.458Z,34.57
2023-01-07T03:40:21.179Z,36.73
2023-01-07T03:42:49.183Z,33.60
2023-01-07T03:45:21.938Z,34.83
2023-01-07T03:47:55.486Z,36.37
2023-01-07T03:50:22.759Z,35.60
2023-01-07T03:52:51.052Z,37.97
2023-01-07T03:55:19.811Z,35.47
2023-01-07T03:57:46.725Z,40.67
2023-01-07T04:00:15.393Z,36.80
2023-01-07T04:02:43.174Z,39.47
2023-01-07T04:05:11.217Z,32.30
2023-01-07T04:07:38.270Z,46.77
2023-01-07T04:10:06.618Z,41.33
2023-01-07T04:12:33.523Z,45.93
2023-01-07T04:15:00.602Z,46.13
2023-01-07T04:17:27.331Z,42.17
2023-01-07T04:19:54.063Z,42.93
2023-01-07T04:22:20.824Z,48.83
2023-01-07T04:24:47.522Z,45.13
2023-01-07T04:27:14.265Z,48.10
2023-01-07T04:29:41.025Z,51.40
2023-01-07T04:32:07.752Z,49.97
2023-01-07T04:34:34.508Z,50.53
2023-01-07T04:37:01.196Z,53.27
2023-01-07T04:39:27.893Z,53.10
2023-01-07T04:41:54.683Z,48.83
2023-01-07T04:44:21.417Z,53.57
2023-01-07T04:46:48.174Z,54.40
2023-01-07T04:49:14.885Z,57.43
2023-01-07T04:51:41.636Z,65.10
2023-01-07T04:54:08.451Z,60.57
2023-01-07T04:56:35.125Z,55.73
2023-01-07T04:59:01.860Z,54.77
2023-01-07T05:01:31.123Z,56.80
2023-01-07T05:03:58.524Z,59.87
2023-01-07T05:06:25.748Z,52.57
2023-01-07T05:08:52.881Z,54.83
2023-01-07T05:11:21.864Z,56.17
2023-01-07T05:13:52.565Z,55.30
2023-01-07T05:16:23.074Z,54.93
2023-01-07T05:18:49.724Z,55.67
2023-01-07T05:21:17.957Z,55.57
2023-01-07T05:23:44.615Z,54.00
2023-01-07T05:26:11.254Z,48.43
2023-01-07T05:28:38.014Z,52.73
2023-01-07T05:31:04.887Z,47.43
2023-01-07T05:33:31.571Z,54.93
2023-01-07T05:35:58.235Z,53.80
2023-01-07T05:38:24.922Z,60.90
2023-01-07T05:40:51.847Z,54.87
2023-01-07T05:43:18.690Z,55.00
2023-01-07T05:45:46.278Z,56.57
2023-01-07T05:48:14.157Z,47.73
2023-01-07T05:50:41.255Z,50.90
2023-01-07T05:53:08.279Z,49.97
2023-01-07T05:55:38.209Z,44.90
2023-01-07T05:58:08.905Z,48.30
2023-01-07T06:00:39.599Z,45.40
2023-01-07T06:03:06.520Z,44.37
2023-01-07T06:05:33.388Z,42.17
2023-01-07T06:08:00.363Z,43.07
2023-01-07T06:10:27.278Z,45.13
2023-01-07T06:12:54.106Z,37.37
2023-01-07T06:15:20.940Z,35.97
2023-01-07T06:17:47.793Z,32.77
2023-01-07T06:20:17.329Z,32.77
2023-01-07T06:22:44.117Z,33.57
2023-01-07T06:25:12.418Z,33.87
2023-01-07T06:27:40.846Z,33.93
2023-01-07T06:30:11.566Z,37.23
2023-01-07T06:32:39.452Z,40.77
2023-01-07T06:35:07.049Z,38.97
2023-01-07T06:37:34.504Z,41.97
2023-01-07T06:40:01.411Z,48.65
2023-01-07T06:42:28.290Z,45.10
2023-01-07T06:44:55.137Z,51.23
2023-01-07T06:47:21.989Z,48.13
2023-01-07T06:49:48.732Z,50.37
2023-01-07T06:52:15.392Z,54.23
2023-01-07T06:54:42.113Z,52.90
2023-01-07T06:57:08.967Z,53.83
2023-01-07T06:59:35.648Z,58.20
2023-01-07T07:02:02.409Z,57.10
2023-01-07T07:04:29.110Z,51.63
2023-01-07T07:06:56.089Z,52.30
2023-01-07T07:09:22.798Z,52.57
2023-01-07T07:11:49.551Z,56.77
2023-01-07T07:14:16.254Z,58.10
2023-01-07T07:16:42.940Z,55.47
2023-01-07T07:19:09.635Z,55.07
2023-01-07T07:21:36.333Z,54.57
2023-01-07T07:24:03.270Z,55.67
2023-01-07T07:26:29.976Z,58.13
2023-01-07T07:28:56.774Z,54.97
2023-01-07T07:31:23.508Z,57.40
2023-01-07T07:33:50.227Z,56.30
2023-01-07T07:36:17.004Z,52.63
2023-01-07T07:38:43.917Z,57.03
2023-01-07T07:41:10.588Z,55.37
2023-01-07T07:43:37.341Z,53.73
2023-01-07T07:46:04.798Z,52.80
2023-01-07T07:48:31.577Z,55.63
2023-01-07T07:50:58.601Z,51.77
2023-01-07T07:53:25.584Z,54.53
2023-01-07T07:55:53.334Z,48.93
2023-01-07T07:58:20.135Z,53.10
2023-01-07T08:00:46.855Z,53.23
2023-01-07T08:03:13.785Z,50.80
2023-01-07T08:05:42.750Z,56.60
2023-01-07T08:08:11.608Z,48.77
2023-01-07T08:10:38.576Z,44.73
2023-01-07T08:13:05.577Z,44.83
2023-01-07T08:15:32.352Z,46.93
2023-01-07T08:18:02.786Z,48.17
2023-01-07T08:20:29.554Z,49.03
2023-01-07T08:23:01.154Z,51.20
2023-01-07T08:25:29.555Z,48.77
2023-01-07T08:27:57.361Z,47.17
2023-01-07T08:30:24.655Z,50.77
2023-01-07T08:32:51.647Z,43.93
2023-01-07T08:35:18.412Z,47.13
2023-01-07T08:37:45.425Z,42.73
2023-01-07T08:40:13.126Z,44.53
2023-01-07T08:42:40.590Z,48.33
2023-01-07T08:45:08.915Z,43.37
2023-01-07T08:47:35.643Z,46.67
2023-01-07T08:50:03.798Z,44.17
2023-01-07T08:52:31.009Z,44.50
2023-01-07T08:54:57.935Z,46.63
2023-01-07T08:57:24.827Z,46.47
2023-01-07T08:59:51.777Z,47.03
2023-01-07T09:02:19.826Z,46.60
2023-01-07T09:04:46.673Z,42.13
2023-01-07T09:07:13.391Z,42.67
2023-01-07T09:09:40.211Z,46.73
2023-01-07T09:12:10.651Z,45.20
2023-01-07T09:14:37.553Z,41.23
2023-01-07T09:17:04.563Z,45.60
2023-01-07T09:19:31.312Z,43.93
2023-01-07T09:21:58.018Z,42.43
2023-01-07T09:24:24.782Z,43.73
2023-01-07T09:26:51.476Z,47.73
2023-01-07T09:29:18.442Z,43.50
2023-01-07T09:31:45.219Z,46.00
2023-01-07T09:34:12.580Z,44.43
2023-01-07T09:36:39.379Z,46.57
2023-01-07T09:39:06.200Z,52.17
2023-01-07T09:41:58.279Z,46.23
2023-01-07T09:44:44.682Z,49.13
2023-01-07T09:47:15.566Z,48.87
2023-01-07T09:49:44.672Z,45.60
2023-01-07T09:52:22.077Z,46.73
2023-01-07T09:54:56.538Z,45.93
2023-01-07T09:57:23.338Z,51.60
2023-01-07T09:59:53.524Z,48.37
2023-01-07T10:02:51.695Z,46.57
2023-01-07T10:05:43.139Z,44.53
2023-01-07T10:08:30.475Z,46.80
2023-01-07T10:11:04.866Z,47.67
2023-01-07T10:13:34.529Z,45.60
2023-01-07T10:16:32.162Z,46.73
2023-01-07T10:19:17.796Z,48.27
2023-01-07T10:21:55.417Z,48.47
2023-01-07T10:24:27.548Z,48.13
2023-01-07T10:26:57.758Z,49.03
2023-01-07T10:29:42.817Z,48.23
2023-01-07T10:32:18.635Z,44.70
2023-01-07T10:34:51.248Z,51.17
2023-01-07T10:37:38.348Z,49.00
2023-01-07T10:40:26.420Z,51.73
2023-01-07T10:43:02.255Z,49.70
2023-01-07T10:45:51.170Z,46.43
2023-01-07T10:48:30.963Z,47.23
2023-01-07T10:51:13.637Z,45.80
2023-01-07T10:53:59.229Z,48.60
2023-01-07T10:56:43.224Z,50.47
2023-01-07T10:59:19.590Z,48.13
2023-01-07T11:01:54.017Z,48.90
2023-01-07T11:04:21.332Z,53.67
2023-01-07T11:06:53.812Z,52.17
2023-01-07T11:09:25.570Z,52.53
2023-01-07T11:11:53.448Z,48.07
2023-01-07T11:14:23.807Z,49.63
2023-01-07T11:16:57.016Z,51.43
2023-01-07T11:19:43.152Z,51.77
2023-01-07T11:22:29.796Z,46.73
2023-01-07T11:24:58.521Z,47.27
2023-01-07T11:27:31.334Z,54.37
2023-01-07T11:30:20.809Z,46.73
2023-01-07T11:33:01.575Z,45.87
2023-01-07T11:35:29.327Z,48.27
2023-01-07T11:37:57.719Z,44.90
2023-01-07T11:40:32.743Z,43.23
2023-01-07T11:43:20.482Z,45.20
2023-01-07T11:46:20.302Z,44.27
2023-01-07T11:49:06.678Z,43.83
2023-01-07T11:51:40.694Z,39.93
2023-01-07T11:54:20.576Z,46.33
2023-01-07T11:56:47.464Z,41.40
2023-01-07T11:59:20.191Z,40.83
2023-01-07T12:01:52.817Z,40.23
2023-01-07T12:04:35.689Z,41.53
2023-01-07T12:07:13.209Z,37.57
2023-01-07T12:09:42.683Z,37.83
2023-01-07T12:12:38.246Z,35.07
2023-01-07T12:15:27.291Z,35.63
2023-01-07T12:18:20.505Z,35.77
2023-01-07T12:21:01.124Z,35.03
2023-01-07T12:23:53.469Z,32.63
2023-01-07T12:26:29.545Z,31.40
2023-01-07T12:29:10.232Z,35.70
2023-01-07T12:31:36.880Z,32.17
2023-01-07T12:34:19.677Z,30.67
2023-01-07T12:36:55.403Z,30.07
2023-01-07T12:39:44.748Z,31.70
2023-01-07T12:42:26.365Z,32.07
2023-01-07T12:44:59.580Z,27.13
2023-01-07T12:47:37.263Z,24.77
2023-01-07T12:50:14.584Z,30.73
2023-01-07T12:52:49.258Z,26.40
2023-01-07T12:55:17.824Z,22.93
2023-01-07T12:57:49.433Z,25.33
2023-01-07T13:00:20.683Z,23.87
2023-01-07T13:03:05.550Z,19.70
2023-01-07T13:06:01.414Z,22.60
2023-01-07T13:09:02.286Z,20.07
2023-01-07T13:12:00.220Z,18.97
2023-01-07T13:14:48.484Z,18.37
2023-01-07T13:17:18.285Z,15.37
2023-01-07T13:19:45.050Z,13.40
2023-01-07T13:22:46.999Z,14.60
2023-01-07T13:25:19.624Z,14.27
2023-01-07T13:28:14.463Z,12.47
2023-01-07T13:31:19.537Z,11.97
2023-01-07T13:34:07.581Z,10.97
2023-01-07T13:36:45.290Z,10.43
2023-01-07T13:39:47.125Z,7.47
2023-01-07T13:42:29.337Z,7.97
2023-01-07T13:45:19.802Z,8.67
2023-01-07T13:47:56.710Z,6.37
2023-01-07T13:50:25.172Z,8.83
2023-01-07T13:53:05.567Z,6.57
2023-01-07T13:55:34.524Z,8.17
2023-01-07T13:58:02.936Z,4.67
2023-01-07T14:00:41.755Z,10.07
2023-01-07T14:03:26.875Z,4.37
2023-01-07T14:06:19.739Z,4.37
2023-01-07T14:08:54.497Z,4.47
2023-01-07T14:11:48.568Z,5.43
2023-01-07T14:14:18.321Z,3.50
2023-01-07T14:16:56.447Z,4.00
2023-01-07T14:19:48.049Z,3.20
2023-01-07T14:22:26.201Z,4.70
2023-01-07T14:25:09.208Z,4.83
2023-01-07T14:28:13.064Z,2.73
2023-01-07T14:30:52.668Z,5.93
2023-01-07T14:33:23.051Z,3.40
2023-01-07T14:36:06.447Z,5.80
2023-01-07T14:38:33.248Z,5.60
2023-01-07T14:41:03.290Z,2.27
2023-01-07T14:43:42.209Z,2.63
2023-01-07T14:46:24.497Z,4.73
2023-01-07T14:49:03.743Z,2.70
2023-01-07T14:51:45.802Z,4.27
2023-01-07T14:54:31.197Z,2.60
2023-01-07T14:57:41.310Z,2.70
2023-01-07T15:00:17.259Z,3.47
2023-01-07T15:02:54.848Z,2.40
2023-01-07T15:05:57.776Z,4.43
2023-01-07T15:08:47.181Z,3.47
2023-01-07T15:11:42.516Z,3.23
2023-01-07T15:15:01.084Z,3.67
2023-01-07T15:17:27.913Z,3.73
2023-01-07T15:19:55.394Z,3.50
2023-01-07T15:22:43.660Z,2.40
2023-01-07T15:25:25.675Z,2.63
2023-01-07T15:28:11.026Z,2.77
2023-01-07T15:30:52.922Z,4.43
2023-01-07T15:33:19.814Z,2.77
2023-01-07T15:35:46.729Z,5.33
2023-01-07T15:38:50.282Z,3.23
2023-01-07T15:41:34.261Z,4.60
2023-01-07T15:44:07.508Z,3.43
2023-01-07T15:46:39.104Z,5.93
2023-01-07T15:49:08.924Z,2.50
2023-01-07T15:51:50.683Z,2.67
2023-01-07T15:54:28.582Z,7.27
2023-01-07T15:57:11.722Z,5.97
2023-01-07T15:59:46.937Z,3.17
2023-01-07T16:02:16.719Z,3.60
2023-01-07T16:04:45.272Z,2.63
2023-01-07T16:07:26.268Z,3.30
2023-01-07T16:09:53.091Z,3.30
2023-01-07T16:12:26.593Z,3.13
2023-01-07T16:14:53.304Z,3.70
2023-01-07T16:17:20.888Z,3.50
2023-01-07T16:19:47.604Z,10.17
2023-01-07T16:22:18.650Z,4.03
2023-01-07T16:24:48.464Z,3.93
2023-01-07T16:27:16.060Z,3.43
2023-01-07T16:29:53.542Z,4.50
2023-01-07T16:32:22.907Z,4.33
2023-01-07T16:34:57.423Z,3.00
2023-01-07T16:37:24.682Z,2.60
2023-01-07T16:39:52.783Z,2.80
2023-01-07T16:42:24.524Z,3.50
2023-01-07T16:44:51.186Z,3.50
2023-01-07T16:47:32.609Z,3.53
2023-01-07T16:50:14.558Z,3.13
2023-01-07T16:52:55.636Z,2.83
2023-01-07T16:55:54.712Z,2.80
2023-01-07T16:58:49.009Z,4.57
2023-01-07T17:01:21.873Z,4.87
2023-01-07T17:03:57.365Z,3.30
2023-01-07T17:06:36.639Z,2.73
2023-01-07T17:09:03.892Z,3.40
2023-01-07T17:11:39.998Z,3.13
2023-01-07T17:14:34.671Z,3.97
2023-01-07T17:17:14.981Z,3.57
2023-01-07T17:19:47.541Z,3.60
2023-01-07T17:22:34.652Z,2.80
2023-01-07T17:25:30.972Z,4.30
2023-01-07T17:28:01.440Z,2.93
2023-01-07T17:30:34.775Z,3.23
2023-01-07T17:33:01.760Z,4.73
2023-01-07T17:35:28.710Z,3.43
2023-01-07T17:37:56.895Z,2.87
2023-01-07T17:40:23.787Z,4.23
2023-01-07T17:43:09.683Z,2.40
2023-01-07T17:45:36.667Z,2.60
2023-01-07T17:48:13.766Z,3.07
2023-01-07T17:50:41.402Z,2.70
2023-01-07T17:53:19.912Z,3.83
2023-01-07T17:55:46.699Z,3.77
2023-01-07T17:58:32.049Z,2.90
2023-01-07T18:01:06.109Z,3.00
2023-01-07T18:03:32.919Z,2.70
2023-01-07T18:05:59.820Z,3.10
2023-01-07T18:08:26.504Z,2.47
2023-01-07T18:11:12.653Z,2.53
2023-01-07T18:13:39.809Z,2.90
2023-01-07T18:16:07.398Z,2.60
2023-01-07T18:18:34.125Z,2.43
2023-01-07T18:21:00.850Z,3.67
2023-01-07T18:23:27.610Z,19.97
2023-01-07T18:25:55.019Z,5.10
2023-01-07T18:28:21.701Z,2.87
2023-01-07T18:30:48.367Z,3.93
2023-01-07T18:33:15.038Z,3.83
2023-01-07T18:35:41.828Z,2.20
2023-01-07T18:38:13.615Z,2.30
2023-01-07T18:40:40.787Z,2.50
2023-01-07T18:43:09.962Z,2.20
2023-01-07T18:45:36.827Z,4.50
2023-01-07T18:48:03.647Z,2.97
2023-01-07T18:50:30.336Z,3.60
2023-01-07T18:52:57.275Z,5.40
2023-01-07T18:55:24.077Z,3.73
2023-01-07T18:57:50.844Z,3.60
2023-01-07T19:00:17.959Z,3.80
2023-01-07T19:02:44.619Z,2.70
2023-01-07T19:05:11.720Z,2.23
2023-01-07T19:07:38.448Z,2.10
2023-01-07T19:10:05.824Z,2.40
2023-01-07T19:12:36.258Z,5.00
2023-01-07T19:15:03.142Z,2.17
2023-01-07T19:17:29.894Z,4.87
2023-01-07T19:19:56.952Z,2.13
2023-01-07T19:22:27.148Z,2.07
2023-01-07T19:24:56.693Z,2.40
2023-01-07T19:27:24.058Z,2.30
2023-01-07T19:29:50.771Z,2.83
2023-01-07T19:32:17.553Z,3.27
2023-01-07T19:35:02.154Z,2.13
2023-01-07T19:37:30.614Z,2.10
2023-01-07T19:39:57.405Z,1.87
2023-01-07T19:42:24.299Z,2.40
2023-01-07T19:44:50.978Z,1.93
2023-01-07T19:47:17.830Z,3.00
2023-01-07T19:49:45.402Z,2.20
2023-01-07T19:52:13.575Z,2.03
2023-01-07T19:54:40.387Z,2.00
2023-01-07T19:57:07.130Z,1.70
2023-01-07T19:59:35.060Z,5.20
2023-01-07T20:02:03.086Z,2.00
2023-01-07T20:04:30.460Z,2.33
2023-01-07T20:06:57.159Z,2.50
2023-01-07T20:09:23.966Z,2.00
2023-01-07T20:11:50.728Z,2.23
2023-01-07T20:14:17.398Z,2.97
2023-01-07T20:16:44.399Z,4.40
2023-01-07T20:19:12.449Z,2.80
2023-01-07T20:21:39.986Z,2.53
2023-01-07T20:24:07.100Z,2.07
2023-01-07T20:26:35.341Z,2.37
2023-01-07T20:29:02.163Z,2.40
2023-01-07T20:31:31.146Z,3.13
2023-01-07T20:33:58.676Z,2.80
2023-01-07T20:36:28.128Z,2.10
2023-01-07T20:38:55.127Z,2.13
2023-01-07T20:41:27.438Z,2.40
2023-01-07T20:43:59.008Z,3.90
2023-01-07T20:46:27.893Z,4.47
2023-01-07T20:48:55.582Z,2.73
2023-01-07T20:51:22.358Z,2.97
2023-01-07T20:53:49.194Z,4.00
2023-01-07T20:56:18.905Z,4.07
2023-01-07T20:58:45.990Z,4.40
2023-01-07T21:01:15.095Z,5.97
2023-01-07T21:03:42.703Z,2.00
2023-01-07T21:06:11.560Z,1.90
2023-01-07T21:08:38.672Z,2.57
2023-01-07T21:11:21.571Z,3.10
2023-01-07T21:13:49.084Z,2.23
2023-01-07T21:16:16.735Z,3.53
2023-01-07T21:18:43.763Z,2.03
2023-01-07T21:21:38.347Z,2.27
2023-01-07T21:24:05.232Z,2.30
2023-01-07T21:26:31.975Z,2.40
2023-01-07T21:28:59.179Z,2.30
2023-01-07T21:31:27.110Z,3.10
2023-01-07T21:33:57.734Z,2.40
2023-01-07T21:36:25.899Z,2.20
2023-01-07T21:38:55.108Z,2.57
2023-01-07T21:41:23.093Z,2.40
2023-01-07T21:43:50.326Z,2.60
2023-01-07T21:46:17.534Z,2.30
2023-01-07T21:48:46.981Z,2.40
2023-01-07T21:51:27.717Z,2.70
2023-01-07T21:53:56.076Z,2.43
2023-01-07T21:56:24.328Z,2.87
2023-01-07T21:58:51.118Z,2.53
2023-01-07T22:01:18.762Z,2.50
2023-01-07T22:03:48.292Z,2.50
2023-01-07T22:06:26.216Z,2.60
2023-01-07T22:08:58.196Z,2.40
2023-01-07T22:11:25.676Z,2.67
2023-01-07T22:13:53.725Z,2.20
2023-01-07T22:16:22.012Z,3.17
2023-01-07T22:18:49.061Z,3.50
2023-01-07T22:21:17.166Z,2.77
2023-01-07T22:23:45.816Z,3.07
2023-01-07T22:26:14.464Z,2.57
2023-01-07T22:28:42.265Z,3.43
2023-01-07T22:31:18.737Z,3.73
2023-01-07T22:33:45.583Z,3.60
2023-01-07T22:36:18.441Z,2.70
2023-01-07T22:38:45.225Z,2.70
2023-01-07T22:41:12.215Z,3.40
2023-01-07T22:43:39.456Z,3.47
2023-01-07T22:46:27.997Z,2.60
2023-01-07T22:48:55.002Z,3.10
2023-01-07T22:51:27.147Z,5.70
2023-01-07T22:53:56.645Z,4.13
2023-01-07T22:56:24.544Z,2.73
2023-01-07T22:58:51.304Z,2.70
2023-01-07T23:01:18.115Z,2.73
2023-01-07T23:03:45.917Z,3.57
2023-01-07T23:06:15.376Z,2.87
2023-01-07T23:08:42.805Z,2.60
2023-01-07T23:11:10.830Z,2.83
2023-01-07T23:13:41.359Z,5.20
2023-01-07T23:16:32.065Z,2.70
2023-01-07T23:18:58.892Z,4.40
2023-01-07T23:21:25.936Z,2.60
2023-01-07T23:23:52.596Z,3.03
2023-01-07T23:26:19.307Z,3.13
2023-01-07T23:28:46.037Z,3.07
2023-01-07T23:31:12.735Z,5.63
2023-01-07T23:33:39.485Z,3.20
2023-01-07T23:36:08.774Z,3.13
2023-01-07T23:38:36.283Z,2.80
2023-01-07T23:41:08.123Z,3.83
2023-01-07T23:43:35.546Z,2.80
2023-01-07T23:46:04.434Z,3.83
2023-01-07T23:48:33.045Z,2.80
2023-01-07T23:51:15.774Z,3.33
2023-01-07T23:53:43.344Z,3.20
2023-01-07T23:56:10.605Z,4.70
2023-01-07T23:58:37.939Z,4.00
